Terminal Aerodrome Forecast
Issued by NWS Duluth, MN

Home | Current Version | Previous Version | Text Only | Print | Product List | Glossary On
Versions: 1 2 3 4 5 6 7 8 9 10 11 12 13 14 15 16 17 18 19 20 21 22 23 24 25 26 27 28 29 30
000
FTUS43 KDLH 011700 RRA
TAFDLH
TAF
KDLH 011742Z 0118/0218 27015KT P6SM SCT100
     FM012200 27012KT P6SM SCT035 BKN080
     FM020600 30007KT P6SM SKC
     FM021400 23008KT P6SM SKC=

USA.gov is the U.S. government's official web portal to all federal, state and local government web resources and services.